createdAt,value
2022-07-27T00:00:19.323Z,0.178640008
2022-07-27T00:01:21.997Z,0.073080003
2022-07-27T00:02:16.328Z,0.073080003
2022-07-27T00:03:16.720Z,0.138040006
2022-07-27T00:04:15.375Z,0.170520008
2022-07-27T00:05:18.762Z,0.129920006
2022-07-27T00:06:15.605Z,0.138040006
2022-07-27T00:07:18.524Z,0.032480001
2022-07-27T00:08:18.685Z,0.105560005
2022-07-27T00:09:24.107Z,0.097440004
2022-07-27T00:10:18.312Z,0.097440004
2022-07-27T00:11:21.085Z,0.016240001
2022-07-27T00:13:29.491Z,0.121800005
2022-07-27T00:14:26.965Z,0.105560005
2022-07-27T00:16:43.749Z,0.089320004
2022-07-27T00:17:40.924Z,0.113680005
2022-07-27T00:18:43.778Z,0.097440004
2022-07-27T00:19:39.547Z,0.081200004
2022-07-27T00:20:41.258Z,0.113680005
2022-07-27T00:21:46.358Z,0.105560005
2022-07-27T00:22:42.996Z,0.048720002
2022-07-27T00:23:38.385Z,0.186760008
2022-07-27T00:24:40.984Z,0.121800005
2022-07-27T00:25:36.238Z,0.105560005
2022-07-27T00:26:42.221Z,0.073080003
2022-07-27T00:27:43.488Z,0.048720002
2022-07-27T00:28:43.510Z,0.105560005
2022-07-27T00:29:40.216Z,0.089320004
2022-07-27T00:30:43.538Z,0.073080003
2022-07-27T00:31:39.929Z,0.024360001
2022-07-27T00:32:40.170Z,0.097440004
2022-07-27T00:33:36.310Z,0.105560005
2022-07-27T00:34:39.866Z,0.048720002
2022-07-27T00:36:41.752Z,0.105560005
2022-07-27T00:37:34.311Z,0.056840003
2022-07-27T00:38:38.496Z,0.081200004
2022-07-27T00:39:31.561Z,0.089320004
2022-07-27T00:40:37.538Z,0.121800005
2022-07-27T00:41:35.464Z,0.121800005
2022-07-27T00:42:41.395Z,0.097440004
2022-07-27T00:43:35.862Z,0.097440004
2022-07-27T00:44:38.949Z,0.129920006
2022-07-27T00:45:33.128Z,0.081200004
2022-07-27T00:46:36.712Z,0.073080003
2022-07-27T00:47:42.503Z,0.016240001
2022-07-27T00:48:46.068Z,0.129920006
2022-07-27T00:49:38.744Z,0.178640008
2022-07-27T00:51:38.822Z,0.105560005
2022-07-27T00:52:40.706Z,0.081200004
2022-07-27T00:53:39.707Z,0.048720002
2022-07-27T00:54:38.832Z,0.097440004
2022-07-27T00:56:39.000Z,0.089320004
2022-07-27T00:58:44.071Z,0.129920006
2022-07-27T00:59:47.365Z,0.048720002
2022-07-27T01:00:48.152Z,0.064960003
2022-07-27T01:01:44.549Z,0.146160007
2022-07-27T01:02:47.244Z,0.081200004
2022-07-27T01:03:40.563Z,0.146160007
2022-07-27T01:04:40.432Z,0.056840003
2022-07-27T01:06:43.038Z,0.081200004
2022-07-27T01:07:38.681Z,0.121800005
2022-07-27T01:08:39.388Z,0.064960003
2022-07-27T01:09:34.646Z,0.105560005
2022-07-27T01:10:38.847Z,0.064960003
2022-07-27T01:11:34.378Z,0.105560005
2022-07-27T01:12:34.644Z,0.089320004
2022-07-27T01:13:30.105Z,0.073080003
2022-07-27T01:14:30.131Z,0.105560005
2022-07-27T01:16:33.980Z,0.211120009
2022-07-27T01:17:30.289Z,0.040600002
2022-07-27T01:18:33.668Z,0.081200004
2022-07-27T01:19:27.612Z,0.129920006
2022-07-27T01:20:27.097Z,0.040600002
2022-07-27T01:21:25.220Z,0.073080003
2022-07-27T01:21:32.125Z,0.073080003
2022-07-27T01:22:29.684Z,0.113680005
2022-07-27T01:23:29.660Z,0.105560005
2022-07-27T01:24:29.281Z,0.056840003
2022-07-27T01:26:26.286Z,0.121800005
2022-07-27T01:27:28.171Z,0.113680005
2022-07-27T01:28:34.648Z,0.040600002
2022-07-27T01:29:28.828Z,0.056840003
2022-07-27T01:30:27.955Z,0.121800005
2022-07-27T01:31:26.464Z,0.081200004
2022-07-27T01:32:26.728Z,0.113680005
2022-07-27T01:34:57.415Z,0.081200004
2022-07-27T01:35:55.440Z,0.121800005
2022-07-27T01:36:54.947Z,0.113680005
2022-07-27T01:37:53.960Z,0.073080003
2022-07-27T01:39:00.076Z,0.056840003
2022-07-27T01:39:56.513Z,0.113680005
2022-07-27T01:41:01.718Z,0.056840003
2022-07-27T01:41:59.783Z,0.032480001
2022-07-27T01:42:59.445Z,0.073080003
2022-07-27T01:43:57.764Z,0.089320004
2022-07-27T01:44:57.378Z,0.089320004
2022-07-27T01:46:58.000Z,0.064960003
2022-07-27T01:47:58.990Z,0.089320004
2022-07-27T01:48:54.330Z,0.121800005
2022-07-27T01:49:56.065Z,0.064960003
2022-07-27T01:51:57.286Z,0.073080003
2022-07-27T01:52:49.972Z,0.081200004
2022-07-27T01:53:49.646Z,0.048720002
2022-07-27T01:54:44.333Z,0.032480001
2022-07-27T01:55:51.454Z,0.056840003
2022-07-27T01:56:46.788Z,0.056840003
2022-07-27T01:57:47.037Z,0.138040006
2022-07-27T01:58:43.254Z,0.186760008
2022-07-27T01:59:47.113Z,0.121800005
2022-07-27T02:01:50.762Z,0.089320004
2022-07-27T02:02:43.793Z,0.056840003
2022-07-27T02:03:47.548Z,0.089320004
2022-07-27T02:04:39.653Z,0.081200004
2022-07-27T02:05:41.924Z,0.089320004
2022-07-27T02:07:50.197Z,0.064960003
2022-07-27T02:08:47.863Z,0.056840003
2022-07-27T02:09:47.016Z,0.064960003
2022-07-27T02:10:51.304Z,0.154280007
2022-07-27T02:11:49.353Z,0.113680005
2022-07-27T02:12:49.159Z,0.097440004
2022-07-27T02:13:49.020Z,0.113680005
2022-07-27T02:14:45.488Z,0.138040006
2022-07-27T02:15:48.298Z,0.032480001
2022-07-27T02:16:41.939Z,0.162400007
2022-07-27T02:17:41.833Z,0.097440004
2022-07-27T02:18:44.652Z,0.113680005
2022-07-27T02:19:45.540Z,0.081200004
2022-07-27T02:21:50.030Z,0.056840003
2022-07-27T02:22:43.283Z,0.113680005
2022-07-27T02:23:42.875Z,0.064960003
2022-07-27T02:24:39.096Z,0.056840003
2022-07-27T02:26:49.567Z,0.032480001
2022-07-27T02:27:49.492Z,0.081200004
2022-07-27T02:28:47.511Z,0.113680005
2022-07-27T02:29:53.787Z,0.073080003
2022-07-27T02:30:46.462Z,0.121800005
2022-07-27T02:31:49.001Z,0.064960003
2022-07-27T02:32:44.168Z,0.048720002
2022-07-27T02:33:43.234Z,0.138040006
2022-07-27T02:34:38.591Z,0.129920006
2022-07-27T02:36:42.302Z,0.016240001
2022-07-27T02:37:37.802Z,0.154280007
2022-07-27T02:38:42.591Z,0.048720002
2022-07-27T02:39:35.099Z,0.113680005
2022-07-27T02:40:43.118Z,0.073080003
2022-07-27T02:41:42.088Z,-0.00812
2022-07-27T02:42:43.785Z,0.154280007
2022-07-27T02:44:24.512Z,0.089320004
2022-07-27T02:46:00.256Z,0.097440004
2022-07-27T02:49:00.882Z,0.064960003
2022-07-27T02:50:00.106Z,0.121800005
2022-07-27T02:52:01.851Z,0.121800005
2022-07-27T02:52:59.870Z,0.138040006
2022-07-27T02:53:55.507Z,0.113680005
2022-07-27T02:54:54.721Z,0.073080003
2022-07-27T02:55:50.636Z,0.064960003
2022-07-27T02:56:49.050Z,0.040600002
2022-07-27T02:57:43.212Z,0.016240001
2022-07-27T02:58:47.662Z,0.032480001
2022-07-27T02:59:42.299Z,0.113680005
2022-07-27T03:01:41.618Z,0.048720002
2022-07-27T03:02:40.966Z,0.105560005
2022-07-27T03:03:37.038Z,0.056840003
2022-07-27T03:04:32.883Z,0.081200004
2022-07-27T03:06:26.116Z,0.113680005
2022-07-27T03:07:22.300Z,0.105560005
2022-07-27T03:08:21.717Z,0.024360001
2022-07-27T03:09:16.977Z,0.073080003
2022-07-27T03:10:19.478Z,0.056840003
2022-07-27T03:11:11.989Z,0.105560005
2022-07-27T03:12:14.390Z,0.040600002
2022-07-27T03:13:09.132Z,0.097440004
2022-07-27T03:14:06.990Z,0.064960003
2022-07-27T03:15:04.228Z,0.097440004
2022-07-27T03:16:04.119Z,0.089320004
2022-07-27T03:16:58.162Z,0.138040006
2022-07-27T03:17:53.554Z,0.081200004
2022-07-27T03:18:57.282Z,0.089320004
2022-07-27T03:19:53.827Z,0.113680005
2022-07-27T03:20:49.691Z,-0.00812
2022-07-27T03:22:54.627Z,0.040600002
2022-07-27T03:23:52.633Z,0.048720002
2022-07-27T03:24:53.367Z,0.113680005
2022-07-27T03:26:51.810Z,0.097440004
2022-07-27T03:27:48.930Z,0.105560005
2022-07-27T03:28:51.583Z,0.121800005
2022-07-27T03:29:46.792Z,0.113680005
2022-07-27T03:30:48.681Z,0.016240001
2022-07-27T03:31:44.437Z,0.138040006
2022-07-27T03:32:44.271Z,0.170520008
2022-07-27T03:33:40.009Z,0.105560005
2022-07-27T03:34:44.829Z,0.097440004
2022-07-27T03:36:43.282Z,0.113680005
2022-07-27T03:37:50.522Z,0.113680005
2022-07-27T03:38:45.242Z,0.105560005
2022-07-27T03:39:44.430Z,0.162400007
2022-07-27T03:41:55.070Z,0.032480001
2022-07-27T03:42:53.645Z,0.097440004
2022-07-27T03:43:53.377Z,0.138040006
2022-07-27T03:44:54.964Z,0.162400007
2022-07-27T03:46:55.149Z,0.089320004
2022-07-27T03:47:57.348Z,0.129920006
2022-07-27T03:48:55.926Z,0.129920006
2022-07-27T03:49:58.168Z,0.138040006
2022-07-27T03:51:56.704Z,0.073080003
2022-07-27T03:53:31.000Z,0.089320004
2022-07-27T03:56:34.921Z,0.064960003
2022-07-27T03:57:31.383Z,0.146160007
2022-07-27T03:58:29.760Z,0.121800005
2022-07-27T03:59:26.429Z,0.146160007
2022-07-27T04:01:26.062Z,0.097440004
2022-07-27T04:02:24.674Z,0.097440004
2022-07-27T04:04:01.390Z,0.138040006
2022-07-27T04:05:01.557Z,0.097440004
2022-07-27T04:07:01.327Z,0.154280007
2022-07-27T04:08:02.680Z,0.121800005
2022-07-27T04:09:08.325Z,0.097440004
2022-07-27T04:09:08.364Z,0.097440004
2022-07-27T04:10:02.139Z,0.089320004
2022-07-27T04:11:00.873Z,0.170520008
2022-07-27T04:11:55.649Z,0.097440004
2022-07-27T04:12:56.453Z,0.113680005
2022-07-27T04:13:50.761Z,0.146160007
2022-07-27T04:14:50.640Z,0.186760008
2022-07-27T04:15:46.035Z,0.162400007
2022-07-27T04:16:48.149Z,0.121800005
2022-07-27T04:17:54.464Z,0.154280007
2022-07-27T04:17:54.678Z,0.154280007
2022-07-27T04:17:57.612Z,0.154280007
2022-07-27T04:18:45.307Z,0.203000009
2022-07-27T04:19:39.845Z,0.097440004
2022-07-27T04:20:39.906Z,0.121800005
2022-07-27T04:21:35.249Z,0.129920006
2022-07-27T04:22:37.353Z,0.113680005
2022-07-27T04:23:37.945Z,0.194880009
2022-07-27T04:24:28.662Z,0.178640008
2022-07-27T04:25:27.243Z,0.113680005
2022-07-27T04:26:30.748Z,0.170520008
2022-07-27T04:27:21.982Z,0.170520008
2022-07-27T04:28:19.723Z,0.186760008
2022-07-27T04:29:19.939Z,0.056840003
2022-07-27T04:29:20.973Z,0.056840003
2022-07-27T04:31:11.179Z,0.170520008
2022-07-27T04:32:05.445Z,0.129920006
2022-07-27T04:33:02.737Z,0.194880009
2022-07-27T04:33:56.011Z,0.178640008
2022-07-27T04:34:54.180Z,0.154280007
2022-07-27T04:35:48.497Z,0.203000009
2022-07-27T04:36:47.984Z,0.243600011
2022-07-27T04:37:57.856Z,0.194880009
2022-07-27T04:37:58.606Z,0.194880009
2022-07-27T04:37:59.193Z,0.194880009
2022-07-27T04:38:44.191Z,0.178640008
2022-07-27T04:39:42.338Z,0.186760008
2022-07-27T04:40:38.683Z,0.235480011
2022-07-27T04:41:37.427Z,0.194880009
2022-07-27T04:42:30.835Z,0.251720011
2022-07-27T04:43:35.160Z,0.178640008
2022-07-27T04:44:26.384Z,0.292320013
2022-07-27T04:47:28.620Z,0.243600011
2022-07-27T04:48:26.810Z,0.22736001
2022-07-27T04:49:30.820Z,0.235480011
2022-07-27T04:51:34.539Z,0.267960012
2022-07-27T04:52:27.694Z,0.154280007
2022-07-27T04:53:26.162Z,0.21924001
2022-07-27T04:54:21.805Z,0.138040006
2022-07-27T04:55:27.691Z,0.194880009
2022-07-27T04:56:24.114Z,0.365400016
2022-07-27T04:57:23.883Z,0.422240019
2022-07-27T04:58:20.367Z,0.292320013
2022-07-27T04:59:20.434Z,0.349160016
2022-07-27T05:00:16.876Z,0.381640017
2022-07-27T05:01:19.432Z,0.373520017
2022-07-27T05:02:12.088Z,0.332920015
2022-07-27T05:03:14.569Z,0.373520017
2022-07-27T05:04:07.281Z,0.308560014
2022-07-27T05:05:10.318Z,0.300440013
2022-07-27T05:07:05.430Z,0.357280016
2022-07-27T05:07:59.656Z,0.243600011
2022-07-27T05:09:01.914Z,0.406000018
2022-07-27T05:09:56.239Z,0.422240019
2022-07-27T05:10:58.356Z,0.397880018
2022-07-27T05:11:52.674Z,0.332920015
2022-07-27T05:12:52.565Z,0.406000018
2022-07-27T05:13:48.232Z,0.43848002
2022-07-27T05:14:48.481Z,0.406000018
2022-07-27T05:15:54.951Z,0.414120018
2022-07-27T05:15:55.008Z,0.414120018
2022-07-27T05:16:47.046Z,0.44660002
2022-07-27T05:17:42.783Z,0.535920024
2022-07-27T05:18:45.722Z,0.43848002
2022-07-27T05:19:40.536Z,0.576520026
2022-07-27T05:20:40.298Z,0.511560023
2022-07-27T05:21:35.525Z,0.414120018
2022-07-27T05:22:40.041Z,0.341040015
2022-07-27T05:23:31.527Z,0.617120028
2022-07-27T05:24:34.753Z,0.487200022
2022-07-27T05:26:28.594Z,0.584640026
2022-07-27T05:27:24.214Z,0.462840021
2022-07-27T05:28:24.886Z,0.535920024
2022-07-27T05:30:47.727Z,0.779520035
2022-07-27T05:31:47.635Z,0.503440022
2022-07-27T05:32:42.281Z,0.44660002
2022-07-27T05:33:42.063Z,0.503440022
2022-07-27T05:33:49.135Z,0.503440022
2022-07-27T05:33:54.661Z,0.503440022
2022-07-27T05:34:43.304Z,0.519680023
2022-07-27T05:35:39.199Z,0.738920033
2022-07-27T05:36:38.340Z,0.641480029
2022-07-27T05:37:33.555Z,0.527800024
2022-07-27T05:38:36.202Z,0.706440032
2022-07-27T05:39:28.767Z,0.67396003
2022-07-27T05:40:29.029Z,0.941920042
2022-07-27T05:41:23.821Z,1.055600047
2022-07-27T05:42:23.254Z,0.933800042
2022-07-27T05:43:18.611Z,0.860720038
2022-07-27T05:44:21.859Z,0.90132004
2022-07-27T05:45:14.288Z,1.226119995
2022-07-27T05:46:13.822Z,1.088080049
2022-07-27T05:47:11.469Z,1.331680059
2022-07-27T05:48:08.445Z,0.649600029
2022-07-27T05:49:03.605Z,1.380400062
2022-07-27T05:50:00.133Z,1.282960057
2022-07-27T05:51:55.057Z,1.096199989
2022-07-27T05:52:57.228Z,1.331680059
2022-07-27T05:53:49.691Z,1.193639994
2022-07-27T05:54:49.245Z,0.844480038
2022-07-27T05:56:42.376Z,1.396640062
2022-07-27T05:57:45.075Z,1.396640062
2022-07-27T05:58:37.683Z,1.453480005
2022-07-27T05:59:39.958Z,1.55092001
2022-07-27T06:01:33.681Z,1.380400062
2022-07-27T06:02:28.444Z,1.364160061
2022-07-27T06:03:29.523Z,1.518440008
2022-07-27T06:04:24.655Z,1.388520002
2022-07-27T06:06:11.290Z,-0.089320004
2022-07-27T06:06:53.406Z,1.534680128
2022-07-27T06:07:51.819Z,1.510320067
2022-07-27T06:08:50.299Z,1.737680078
2022-07-27T06:09:49.516Z,1.356040001
2022-07-27T06:11:44.605Z,1.57528007
2022-07-27T06:12:41.017Z,1.502200127
2022-07-27T06:13:41.977Z,1.364160061
2022-07-27T06:14:36.307Z,1.705200076
2022-07-27T06:15:34.682Z,1.510320067
2022-07-27T06:16:33.170Z,1.388520002
2022-07-27T06:17:31.189Z,1.307320118
2022-07-27T06:18:30.668Z,1.656480074
2022-07-27T06:19:25.432Z,1.429120064
2022-07-27T06:19:36.003Z,1.429120064
2022-07-27T06:19:36.041Z,1.429120064
2022-07-27T06:21:23.343Z,1.55904007
2022-07-27T06:22:18.196Z,1.632120132
2022-07-27T06:23:20.586Z,1.859480143
2022-07-27T06:24:13.904Z,1.697080135
2022-07-27T06:25:11.664Z,1.599640131
2022-07-27T06:27:06.675Z,1.396640062
2022-07-27T06:28:08.929Z,1.624000072
2022-07-27T06:29:01.515Z,1.656480074
2022-07-27T06:30:03.980Z,1.656480074
2022-07-27T06:30:56.511Z,1.745800018
2022-07-27T06:31:59.242Z,1.818880081
2022-07-27T06:32:52.102Z,2.411640167
2022-07-27T06:33:54.180Z,1.583400011
2022-07-27T06:34:46.912Z,1.721440077
2022-07-27T06:36:41.976Z,2.01376009
2022-07-27T06:37:44.577Z,1.697080135
2022-07-27T06:38:37.739Z,1.851360083
2022-07-27T06:39:40.294Z,1.924440145
2022-07-27T06:41:33.085Z,1.607760072
2022-07-27T06:42:57.303Z,-0.089320004
2022-07-27T06:43:37.068Z,2.200520039
2022-07-27T06:44:35.371Z,1.932560086
2022-07-27T06:46:30.540Z,2.176160097
2022-07-27T06:47:30.796Z,2.801400185
2022-07-27T06:48:26.260Z,2.2411201
2022-07-27T06:49:26.675Z,2.00564003
2022-07-27T06:50:21.934Z,2.127439976
2022-07-27T06:51:22.117Z,2.216760159
2022-07-27T06:52:17.547Z,2.436000109
2022-07-27T06:53:21.325Z,2.24924016
2022-07-27T06:54:16.034Z,2.525320053
2022-07-27T06:55:11.522Z,2.23300004
2022-07-27T06:57:08.165Z,2.492840052
2022-07-27T06:58:08.303Z,2.679600239
2022-07-27T06:59:04.101Z,2.833880186
2022-07-27T07:00:04.731Z,3.158680201
2022-07-27T07:02:04.334Z,2.444120169
2022-07-27T07:02:58.646Z,1.916320086
2022-07-27T07:04:00.811Z,2.338560104
2022-07-27T07:04:54.010Z,2.801400185
2022-07-27T07:06:50.571Z,3.061240196
2022-07-27T07:07:54.141Z,2.947560072
2022-07-27T07:08:47.571Z,3.442880154
2022-07-27T07:09:50.994Z,3.215520144
2022-07-27T07:10:45.326Z,3.061240196
2022-07-27T07:11:48.612Z,3.694600105
2022-07-27T07:12:42.830Z,3.304840088
2022-07-27T07:13:45.859Z,3.386040211
2022-07-27T07:14:40.070Z,3.889480114
2022-07-27T07:16:39.204Z,3.897600174
2022-07-27T07:17:36.046Z,3.995040178
2022-07-27T07:18:40.221Z,4.311720371
2022-07-27T07:19:34.234Z,4.246760368
2022-07-27T07:21:11.549Z,-0.089320004
2022-07-27T07:21:51.997Z,1.79452014
2022-07-27T07:22:49.957Z,1.672720075
2022-07-27T07:23:46.611Z,1.542800069
2022-07-27T07:24:46.324Z,1.688960075
2022-07-27T07:25:42.467Z,1.388520002
2022-07-27T07:26:40.874Z,1.615880013
2022-07-27T07:27:37.366Z,1.323559999
2022-07-27T07:28:36.947Z,1.437240124
2022-07-27T07:29:32.363Z,1.307320118
2022-07-27T07:31:26.864Z,3.759560108
2022-07-27T07:32:33.377Z,1.307320118
2022-07-27T07:32:33.928Z,1.307320118
2022-07-27T07:33:23.847Z,1.534680128
2022-07-27T07:34:19.940Z,1.396640062
2022-07-27T07:35:17.965Z,1.331680059
2022-07-27T07:37:10.927Z,1.34792006
2022-07-27T07:38:12.595Z,0.844480038
2022-07-27T07:39:04.405Z,1.161159992
2022-07-27T07:40:41.422Z,1.299200058
2022-07-27T07:41:02.535Z,3.418520212
2022-07-27T07:41:58.674Z,4.376680374
2022-07-27T07:42:58.225Z,1.835120082
2022-07-27T07:43:53.452Z,2.208640099
2022-07-27T07:44:50.752Z,2.23300004
2022-07-27T07:45:51.432Z,2.03000021
2022-07-27T07:46:47.303Z,2.533440113
2022-07-27T07:47:44.034Z,3.158680201
2022-07-27T07:48:50.012Z,3.499720097
2022-07-27T07:50:56.687Z,-0.089320004
2022-07-27T07:51:18.257Z,2.785160065
2022-07-27T07:52:18.699Z,2.379160166
2022-07-27T07:53:20.160Z,2.086840153
2022-07-27T07:54:16.725Z,2.265480042
2022-07-27T07:55:18.419Z,1.745800018
2022-07-27T07:57:16.401Z,2.184280157
2022-07-27T07:58:13.562Z,4.368560314
2022-07-27T07:59:15.747Z,5.156200409
2022-07-27T08:00:12.512Z,5.075000286
2022-07-27T08:01:13.921Z,2.257359982
2022-07-27T08:02:11.222Z,2.062479973
2022-07-27T08:03:11.940Z,1.583400011
2022-07-27T08:04:08.893Z,1.56716013
2022-07-27T08:05:12.445Z,1.591520071
2022-07-27T08:07:07.869Z,1.599640131
2022-07-27T08:08:04.362Z,1.534680128
2022-07-27T08:09:08.494Z,1.705200076
2022-07-27T08:10:02.959Z,2.549680233
2022-07-27T08:11:07.567Z,2.671480179
2022-07-27T08:12:01.848Z,3.231760025
2022-07-27T08:13:05.818Z,1.737680078
2022-07-27T08:13:59.684Z,1.762040138
2022-07-27T08:15:04.058Z,4.0437603
2022-07-27T08:17:04.150Z,5.383560181
2022-07-27T08:17:59.444Z,5.594680309
2022-07-27T08:19:04.196Z,6.333600044
2022-07-27T08:19:59.453Z,6.293000221
2022-07-27T08:21:02.092Z,7.129360199
2022-07-27T08:22:01.116Z,6.902000427
2022-07-27T08:23:02.914Z,7.42168045
2022-07-27T08:24:01.246Z,3.995040178
2022-07-27T08:25:02.535Z,3.394160271
2022-07-27T08:27:02.902Z,7.129360199
2022-07-27T08:28:02.038Z,7.998200417
2022-07-27T08:29:11.105Z,8.087520599
2022-07-27T08:29:13.556Z,8.087520599
2022-07-27T08:29:14.277Z,8.087520599
2022-07-27T08:30:53.053Z,-0.073080003
2022-07-27T08:31:51.132Z,8.282400131
2022-07-27T08:31:52.736Z,8.282400131
2022-07-27T08:31:52.794Z,8.282400131
2022-07-27T08:32:35.253Z,8.079400063
2022-07-27T08:33:31.231Z,7.283640385
2022-07-27T08:34:32.304Z,7.389200211
2022-07-27T08:36:29.419Z,7.535360336
2022-07-27T08:37:25.766Z,6.46352005
2022-07-27T08:38:26.041Z,5.148080349
2022-07-27T08:39:52.983Z,5.188680172
2022-07-27T08:40:27.815Z,5.188680172
2022-07-27T08:40:36.178Z,5.188680172
2022-07-27T08:40:41.207Z,6.723360062
2022-07-27T08:40:43.491Z,6.723360062
2022-07-27T08:40:45.978Z,6.723360062
2022-07-27T08:41:20.415Z,7.308000565
2022-07-27T08:42:21.497Z,6.94260025
2022-07-27T08:43:24.475Z,7.965720177
2022-07-27T08:43:25.292Z,7.965720177
2022-07-27T08:44:19.257Z,7.900760174
2022-07-27T08:45:16.213Z,7.478520393
2022-07-27T08:47:12.783Z,7.762720108
2022-07-27T08:48:13.995Z,7.632800102
2022-07-27T08:49:10.703Z,7.616560459
2022-07-27T08:50:11.100Z,5.781440258
2022-07-27T08:51:08.881Z,3.515960217
2022-07-27T08:52:06.710Z,3.645880222
2022-07-27T08:53:04.595Z,3.743320227
2022-07-27T08:54:02.396Z,3.451000214
2022-07-27T08:55:00.578Z,3.264240265
2022-07-27T08:56:56.399Z,3.215520144
2022-07-27T08:57:57.761Z,3.126200199
2022-07-27T08:58:02.762Z,3.126200199
2022-07-27T08:58:52.313Z,2.712080002
2022-07-27T08:59:50.743Z,2.525320053
2022-07-27T09:01:45.971Z,2.265480042
2022-07-27T09:02:43.210Z,1.875720024
2022-07-27T09:03:40.573Z,1.77828002
2022-07-27T09:04:38.622Z,1.648360014
2022-07-27T09:05:35.721Z,1.632120132
2022-07-27T09:06:33.178Z,1.77828002
2022-07-27T09:07:31.133Z,1.688960075
2022-07-27T09:08:30.810Z,0.941920042
2022-07-27T09:09:26.091Z,1.534680128
2022-07-27T09:10:23.342Z,1.429120064
2022-07-27T09:12:17.466Z,1.429120064
2022-07-27T09:13:14.566Z,1.502200127
2022-07-27T09:14:12.211Z,1.599640131
2022-07-27T09:15:09.306Z,2.00564003
2022-07-27T09:17:47.317Z,2.509080172
2022-07-27T09:17:47.493Z,2.509080172
2022-07-27T09:18:03.870Z,3.783920288
2022-07-27T09:19:01.488Z,3.686480045
2022-07-27T09:19:59.324Z,3.191160202
2022-07-27T09:20:56.739Z,2.809520245
2022-07-27T09:21:54.284Z,3.053120136
2022-07-27T09:22:51.673Z,2.630880117
2022-07-27T09:23:49.190Z,2.858240128
2022-07-27T09:24:47.933Z,2.728320122
2022-07-27T09:26:42.806Z,2.419760227
2022-07-27T09:27:40.242Z,2.143680096
2022-07-27T09:28:35.403Z,1.818880081
2022-07-27T09:29:35.577Z,1.437240124
2022-07-27T09:30:31.107Z,1.56716013
2022-07-27T09:31:30.781Z,1.583400011
2022-07-27T09:32:26.062Z,1.445360065
2022-07-27T09:33:27.658Z,0.966280043
2022-07-27T09:33:33.811Z,0.966280043
2022-07-27T09:34:22.169Z,1.299200058
2022-07-27T09:35:19.985Z,1.144920111
2022-07-27T09:37:14.702Z,0.844480038
2022-07-27T09:38:11.131Z,1.055600047
2022-07-27T09:39:08.218Z,1.177400112
2022-07-27T09:40:07.564Z,1.372280121
2022-07-27T09:41:02.252Z,1.039360046
2022-07-27T09:42:02.087Z,1.323559999
2022-07-27T09:43:09.212Z,1.136800051
2022-07-27T09:43:23.546Z,1.136800051
2022-07-27T09:43:23.845Z,1.136800051
2022-07-27T09:44:30.543Z,1.169280052
2022-07-27T09:44:54.789Z,1.56716013
2022-07-27T09:46:49.668Z,1.445360065
2022-07-27T09:47:49.205Z,1.56716013
2022-07-27T09:48:44.520Z,1.364160061
2022-07-27T09:49:45.813Z,1.510320067
2022-07-27T09:51:58.365Z,1.282960057
2022-07-27T09:53:42.765Z,1.599640131
2022-07-27T09:53:43.717Z,1.599640131
2022-07-27T09:53:44.300Z,1.599640131
2022-07-27T09:54:33.303Z,1.900080085
2022-07-27T09:55:27.661Z,1.705200076
2022-07-27T09:56:26.921Z,1.973160028
2022-07-27T09:57:22.170Z,1.965040088
2022-07-27T09:58:20.933Z,1.956920147
2022-07-27T09:59:15.400Z,2.46848011
2022-07-27T10:00:14.251Z,2.103080034
2022-07-27T10:02:07.384Z,2.898840189
2022-07-27T10:03:01.827Z,2.890720129
2022-07-27T10:04:03.280Z,3.012520075
2022-07-27T10:04:55.246Z,3.069360256
2022-07-27T10:05:54.242Z,3.199280262
2022-07-27T10:07:02.432Z,3.751440048
2022-07-27T10:07:02.857Z,3.751440048
2022-07-27T10:07:03.937Z,3.751440048
2022-07-27T10:07:48.581Z,3.865120173
2022-07-27T10:08:43.059Z,3.532200098
2022-07-27T10:09:42.678Z,3.694600105
2022-07-27T10:11:36.734Z,3.970680237
2022-07-27T10:12:31.913Z,3.767680168
2022-07-27T10:13:30.579Z,4.189920425
2022-07-27T10:14:25.902Z,4.189920425
2022-07-27T10:15:24.993Z,4.141200066
2022-07-27T10:16:19.499Z,3.605280161
2022-07-27T10:17:16.661Z,3.580920219
2022-07-27T10:18:15.522Z,3.564680099
2022-07-27T10:19:10.474Z,4.246760368
2022-07-27T10:20:07.675Z,3.572800159
2022-07-27T10:21:06.557Z,4.01940012
2022-07-27T10:22:00.919Z,3.832640171
2022-07-27T10:23:02.825Z,3.962560177
2022-07-27T10:23:55.255Z,4.238640308
2022-07-27T10:24:56.986Z,4.157440186
2022-07-27T10:26:46.536Z,4.01128006
2022-07-27T10:27:45.537Z,4.06000042
2022-07-27T10:29:22.838Z,4.750200272
2022-07-27T10:31:14.924Z,-0.089320004
2022-07-27T10:31:40.121Z,4.02752018
2022-07-27T10:32:37.413Z,3.256120205
2022-07-27T10:33:36.806Z,3.101840019
2022-07-27T10:34:31.192Z,3.353560209
2022-07-27T10:35:31.460Z,3.183040142
2022-07-27T10:37:35.717Z,2.728320122
2022-07-27T10:38:29.925Z,2.614640236
2022-07-27T10:39:32.172Z,2.574040174
2022-07-27T10:40:23.966Z,2.500960112
2022-07-27T10:42:17.255Z,1.900080085
2022-07-27T10:43:12.777Z,1.388520002
2022-07-27T10:44:14.677Z,1.55904007
2022-07-27T10:45:05.528Z,1.136800051
2022-07-27T10:46:04.138Z,1.218000054
2022-07-27T10:46:58.348Z,1.104320049
2022-07-27T10:47:53.807Z,0.950040042
2022-07-27T10:48:52.263Z,1.299200058
2022-07-27T10:49:46.102Z,1.380400062
2022-07-27T10:51:41.480Z,1.388520002
2022-07-27T10:52:35.283Z,1.153040051
2022-07-27T10:53:36.217Z,1.494080067
2022-07-27T10:53:49.182Z,1.494080067
2022-07-27T10:54:10.526Z,1.494080067
2022-07-27T10:54:31.050Z,1.364160061
2022-07-27T10:55:25.225Z,1.380400062
2022-07-27T10:57:21.281Z,1.323559999
2022-07-27T10:58:20.267Z,1.583400011
2022-07-27T10:59:14.668Z,1.835120082
2022-07-27T11:00:13.545Z,1.510320067
2022-07-27T11:00:19.643Z,1.510320067
2022-07-27T11:01:07.132Z,1.412880063
2022-07-27T11:02:06.013Z,1.534680128
2022-07-27T11:03:01.622Z,1.883840084
2022-07-27T11:03:57.986Z,1.640240073
2022-07-27T11:04:56.398Z,2.062479973
2022-07-27T11:07:45.194Z,2.200520039
2022-07-27T11:08:13.495Z,2.200520039
2022-07-27T11:08:34.523Z,2.200520039
2022-07-27T11:08:47.560Z,2.314200163
2022-07-27T11:08:56.141Z,2.314200163
2022-07-27T11:09:21.374Z,2.314200163
2022-07-27T11:10:33.586Z,2.639000177
2022-07-27T11:12:11.007Z,-0.032480001
2022-07-27T11:12:50.798Z,3.085600138
2022-07-27T11:13:48.849Z,2.736440182
2022-07-27T11:14:45.577Z,3.134320259
2022-07-27T11:15:43.550Z,2.91508007
2022-07-27T11:16:54.512Z,3.288600206
2022-07-27T11:16:55.688Z,3.288600206
2022-07-27T11:16:56.071Z,3.288600206
2022-07-27T11:17:56.842Z,3.191160202